sensor_id;sensor_type;location;lat;lon;timestamp;temperature;humidity
71117;SHT31;58775;46.992;9.518;2023-03-26T00:00:51;5.23;87.04
71117;SHT31;58775;46.992;9.518;2023-03-26T00:02:53;5.22;86.92
71117;SHT31;58775;46.992;9.518;2023-03-26T00:04:55;5.24;87.23
71117;SHT31;58775;46.992;9.518;2023-03-26T00:06:56;5.13;87.38
71117;SHT31;58775;46.992;9.518;2023-03-26T00:08:57;5.06;88.47
71117;SHT31;58775;46.992;9.518;2023-03-26T00:10:58;5.15;87.74
71117;SHT31;58775;46.992;9.518;2023-03-26T00:12:59;5.22;87.51
71117;SHT31;58775;46.992;9.518;2023-03-26T00:15:01;5.30;87.44
71117;SHT31;58775;46.992;9.518;2023-03-26T00:17:02;5.09;88.01
71117;SHT31;58775;46.992;9.518;2023-03-26T00:19:04;5.00;88.59
71117;SHT31;58775;46.992;9.518;2023-03-26T00:21:05;4.95;88.67
71117;SHT31;58775;46.992;9.518;2023-03-26T00:23:07;4.92;88.56
71117;SHT31;58775;46.992;9.518;2023-03-26T00:25:08;4.93;88.05
71117;SHT31;58775;46.992;9.518;2023-03-26T00:27:10;5.12;87.92
71117;SHT31;58775;46.992;9.518;2023-03-26T00:29:11;5.30;87.36
71117;SHT31;58775;46.992;9.518;2023-03-26T00:31:14;5.43;86.74
71117;SHT31;58775;46.992;9.518;2023-03-26T00:33:15;5.22;87.95
71117;SHT31;58775;46.992;9.518;2023-03-26T00:35:19;5.20;88.40
71117;SHT31;58775;46.992;9.518;2023-03-26T00:37:22;5.37;87.62
71117;SHT31;58775;46.992;9.518;2023-03-26T00:39:27;5.22;88.04
71117;SHT31;58775;46.992;9.518;2023-03-26T00:41:30;5.30;87.26
71117;SHT31;58775;46.992;9.518;2023-03-26T00:43:33;5.37;87.14
71117;SHT31;58775;46.992;9.518;2023-03-26T00:45:35;5.44;86.82
71117;SHT31;58775;46.992;9.518;2023-03-26T00:47:36;5.20;87.85
71117;SHT31;58775;46.992;9.518;2023-03-26T00:49:37;4.97;88.13
71117;SHT31;58775;46.992;9.518;2023-03-26T00:51:40;5.15;87.15
71117;SHT31;58775;46.992;9.518;2023-03-26T00:53:43;5.16;87.37
71117;SHT31;58775;46.992;9.518;2023-03-26T00:55:46;5.20;87.10
71117;SHT31;58775;46.992;9.518;2023-03-26T00:57:47;5.22;87.77
71117;SHT31;58775;46.992;9.518;2023-03-26T00:59:48;5.16;88.11
71117;SHT31;58775;46.992;9.518;2023-03-26T01:01:50;5.18;87.12
71117;SHT31;58775;46.992;9.518;2023-03-26T01:03:56;5.08;88.12
71117;SHT31;58775;46.992;9.518;2023-03-26T01:06:05;4.99;87.77
71117;SHT31;58775;46.992;9.518;2023-03-26T01:08:27;5.18;87.12
71117;SHT31;58775;46.992;9.518;2023-03-26T01:10:30;5.19;87.71
71117;SHT31;58775;46.992;9.518;2023-03-26T01:12:38;5.23;87.31
71117;SHT31;58775;46.992;9.518;2023-03-26T01:14:39;5.30;87.03
71117;SHT31;58775;46.992;9.518;2023-03-26T01:16:50;5.23;87.41
71117;SHT31;58775;46.992;9.518;2023-03-26T01:18:52;5.11;87.86
71117;SHT31;58775;46.992;9.518;2023-03-26T01:20:54;5.02;87.78
71117;SHT31;58775;46.992;9.518;2023-03-26T01:23:06;5.08;87.54
71117;SHT31;58775;46.992;9.518;2023-03-26T01:25:07;4.99;87.27
71117;SHT31;58775;46.992;9.518;2023-03-26T01:27:32;5.02;88.28
71117;SHT31;58775;46.992;9.518;2023-03-26T01:32:09;5.15;86.81
71117;SHT31;58775;46.992;9.518;2023-03-26T01:34:24;5.00;88.07
71117;SHT31;58775;46.992;9.518;2023-03-26T01:36:54;5.08;87.48
71117;SHT31;58775;46.992;9.518;2023-03-26T01:41:14;4.82;88.89
71117;SHT31;58775;46.992;9.518;2023-03-26T01:43:31;4.92;88.38
71117;SHT31;58775;46.992;9.518;2023-03-26T01:45:39;4.89;89.22
71117;SHT31;58775;46.992;9.518;2023-03-26T01:47:43;4.99;89.23
71117;SHT31;58775;46.992;9.518;2023-03-26T01:49:45;5.11;88.87
71117;SHT31;58775;46.992;9.518;2023-03-26T01:51:46;5.22;87.27
71117;SHT31;58775;46.992;9.518;2023-03-26T01:53:48;5.23;87.38
71117;SHT31;58775;46.992;9.518;2023-03-26T01:58:26;5.16;87.77
71117;SHT31;58775;46.992;9.518;2023-03-26T02:00:31;5.00;88.21
71117;SHT31;58775;46.992;9.518;2023-03-26T02:07:08;5.15;87.50
71117;SHT31;58775;46.992;9.518;2023-03-26T02:09:20;5.12;87.58
71117;SHT31;58775;46.992;9.518;2023-03-26T02:11:23;5.19;87.40
71117;SHT31;58775;46.992;9.518;2023-03-26T02:13:25;5.22;87.19
71117;SHT31;58775;46.992;9.518;2023-03-26T02:15:26;5.19;87.10
71117;SHT31;58775;46.992;9.518;2023-03-26T02:17:28;5.23;87.23
71117;SHT31;58775;46.992;9.518;2023-03-26T02:19:29;5.29;86.80
71117;SHT31;58775;46.992;9.518;2023-03-26T02:21:30;5.29;86.70
71117;SHT31;58775;46.992;9.518;2023-03-26T02:23:33;5.29;86.49
71117;SHT31;58775;46.992;9.518;2023-03-26T02:25:36;5.22;86.42
71117;SHT31;58775;46.992;9.518;2023-03-26T02:27:41;5.11;86.91
71117;SHT31;58775;46.992;9.518;2023-03-26T02:29:44;4.88;88.30
71117;SHT31;58775;46.992;9.518;2023-03-26T02:31:48;4.89;88.29
71117;SHT31;58775;46.992;9.518;2023-03-26T02:33:49;4.93;88.42
71117;SHT31;58775;46.992;9.518;2023-03-26T02:35:51;4.89;87.95
71117;SHT31;58775;46.992;9.518;2023-03-26T02:37:52;4.79;88.92
71117;SHT31;58775;46.992;9.518;2023-03-26T02:39:55;4.83;88.82
71117;SHT31;58775;46.992;9.518;2023-03-26T02:42:03;5.00;88.45
71117;SHT31;58775;46.992;9.518;2023-03-26T02:44:07;5.03;88.06
71117;SHT31;58775;46.992;9.518;2023-03-26T02:46:27;5.06;87.78
71117;SHT31;58775;46.992;9.518;2023-03-26T02:48:39;4.86;88.64
71117;SHT31;58775;46.992;9.518;2023-03-26T02:50:53;4.93;87.83
71117;SHT31;58775;46.992;9.518;2023-03-26T02:53:13;4.91;87.50
71117;SHT31;58775;46.992;9.518;2023-03-26T02:55:17;4.97;87.14
71117;SHT31;58775;46.992;9.518;2023-03-26T02:57:19;5.05;87.24
71117;SHT31;58775;46.992;9.518;2023-03-26T02:59:36;5.11;86.87
71117;SHT31;58775;46.992;9.518;2023-03-26T03:02:00;5.06;87.70
71117;SHT31;58775;46.992;9.518;2023-03-26T03:04:05;5.11;87.96
71117;SHT31;58775;46.992;9.518;2023-03-26T03:06:10;5.08;86.41
71117;SHT31;58775;46.992;9.518;2023-03-26T03:08:22;4.99;88.03
71117;SHT31;58775;46.992;9.518;2023-03-26T03:13:16;5.15;87.22
71117;SHT31;58775;46.992;9.518;2023-03-26T03:15:18;5.12;87.62
71117;SHT31;58775;46.992;9.518;2023-03-26T03:17:19;5.19;87.07
71117;SHT31;58775;46.992;9.518;2023-03-26T03:19:21;5.11;87.78
71117;SHT31;58775;46.992;9.518;2023-03-26T03:21:23;5.15;87.49
71117;SHT31;58775;46.992;9.518;2023-03-26T03:23:24;5.08;87.53
71117;SHT31;58775;46.992;9.518;2023-03-26T03:25:36;5.05;88.47
71117;SHT31;58775;46.992;9.518;2023-03-26T03:27:41;5.23;87.30
71117;SHT31;58775;46.992;9.518;2023-03-26T03:29:46;5.18;87.46
71117;SHT31;58775;46.992;9.518;2023-03-26T03:32:13;5.06;87.27
71117;SHT31;58775;46.992;9.518;2023-03-26T03:34:19;4.93;88.28
71117;SHT31;58775;46.992;9.518;2023-03-26T03:36:24;4.99;87.46
71117;SHT31;58775;46.992;9.518;2023-03-26T03:38:39;4.88;88.11
71117;SHT31;58775;46.992;9.518;2023-03-26T03:40:40;5.00;87.84
71117;SHT31;58775;46.992;9.518;2023-03-26T03:42:41;5.11;87.45
71117;SHT31;58775;46.992;9.518;2023-03-26T03:44:43;5.03;87.69
71117;SHT31;58775;46.992;9.518;2023-03-26T03:47:04;5.16;87.71
71117;SHT31;58775;46.992;9.518;2023-03-26T03:49:06;5.13;86.97
71117;SHT31;58775;46.992;9.518;2023-03-26T03:51:10;5.23;87.04
71117;SHT31;58775;46.992;9.518;2023-03-26T03:53:29;5.27;87.21
71117;SHT31;58775;46.992;9.518;2023-03-26T03:55:33;5.32;86.90
71117;SHT31;58775;46.992;9.518;2023-03-26T03:57:37;5.24;86.99
71117;SHT31;58775;46.992;9.518;2023-03-26T03:59:44;5.29;88.27
71117;SHT31;58775;46.992;9.518;2023-03-26T04:01:47;5.27;87.55
71117;SHT31;58775;46.992;9.518;2023-03-26T04:03:57;5.34;85.63
71117;SHT31;58775;46.992;9.518;2023-03-26T04:06:09;5.63;83.48
71117;SHT31;58775;46.992;9.518;2023-03-26T04:08:12;5.81;83.20
71117;SHT31;58775;46.992;9.518;2023-03-26T04:10:18;5.58;84.87
71117;SHT31;58775;46.992;9.518;2023-03-26T04:12:38;5.36;86.15
71117;SHT31;58775;46.992;9.518;2023-03-26T04:14:40;5.32;85.73
71117;SHT31;58775;46.992;9.518;2023-03-26T04:16:48;5.32;86.27
71117;SHT31;58775;46.992;9.518;2023-03-26T04:18:49;5.26;86.86
71117;SHT31;58775;46.992;9.518;2023-03-26T04:20:51;5.22;86.14
71117;SHT31;58775;46.992;9.518;2023-03-26T04:22:58;5.50;84.70
71117;SHT31;58775;46.992;9.518;2023-03-26T04:25:01;5.42;85.46
71117;SHT31;58775;46.992;9.518;2023-03-26T04:27:14;5.42;85.50
71117;SHT31;58775;46.992;9.518;2023-03-26T04:29:17;5.40;85.60
71117;SHT31;58775;46.992;9.518;2023-03-26T04:31:24;5.36;86.05
71117;SHT31;58775;46.992;9.518;2023-03-26T04:33:31;5.37;86.24
71117;SHT31;58775;46.992;9.518;2023-03-26T04:35:33;5.42;86.90
71117;SHT31;58775;46.992;9.518;2023-03-26T04:37:37;5.48;86.70
71117;SHT31;58775;46.992;9.518;2023-03-26T04:39:44;5.43;86.07
71117;SHT31;58775;46.992;9.518;2023-03-26T04:42:24;5.55;86.43
71117;SHT31;58775;46.992;9.518;2023-03-26T04:44:39;5.40;86.79
71117;SHT31;58775;46.992;9.518;2023-03-26T04:46:44;5.36;86.41
71117;SHT31;58775;46.992;9.518;2023-03-26T04:48:53;5.39;86.06
71117;SHT31;58775;46.992;9.518;2023-03-26T04:50:55;5.44;85.47
71117;SHT31;58775;46.992;9.518;2023-03-26T04:52:57;5.46;85.55
71117;SHT31;58775;46.992;9.518;2023-03-26T04:55:35;5.54;85.10
71117;SHT31;58775;46.992;9.518;2023-03-26T04:57:50;5.48;85.75
71117;SHT31;58775;46.992;9.518;2023-03-26T05:00:14;5.48;85.25
71117;SHT31;58775;46.992;9.518;2023-03-26T05:02:18;5.53;84.95
71117;SHT31;58775;46.992;9.518;2023-03-26T05:04:24;5.43;85.73
71117;SHT31;58775;46.992;9.518;2023-03-26T05:06:26;5.46;85.44
71117;SHT31;58775;46.992;9.518;2023-03-26T05:08:28;5.57;85.16
71117;SHT31;58775;46.992;9.518;2023-03-26T05:10:30;5.47;85.61
71117;SHT31;58775;46.992;9.518;2023-03-26T05:12:37;5.63;85.28
71117;SHT31;58775;46.992;9.518;2023-03-26T05:14:49;5.55;86.08
71117;SHT31;58775;46.992;9.518;2023-03-26T05:16:56;5.60;85.48
71117;SHT31;58775;46.992;9.518;2023-03-26T05:18:57;5.65;85.75
71117;SHT31;58775;46.992;9.518;2023-03-26T05:21:03;5.79;84.80
71117;SHT31;58775;46.992;9.518;2023-03-26T05:23:05;5.65;86.03
71117;SHT31;58775;46.992;9.518;2023-03-26T05:25:15;5.73;84.44
71117;SHT31;58775;46.992;9.518;2023-03-26T05:27:17;5.91;82.13
71117;SHT31;58775;46.992;9.518;2023-03-26T05:29:20;6.09;81.45
71117;SHT31;58775;46.992;9.518;2023-03-26T05:31:26;6.29;78.84
71117;SHT31;58775;46.992;9.518;2023-03-26T05:33:30;6.56;76.39
71117;SHT31;58775;46.992;9.518;2023-03-26T05:35:41;6.75;75.85
71117;SHT31;58775;46.992;9.518;2023-03-26T05:37:45;6.81;76.06
71117;SHT31;58775;46.992;9.518;2023-03-26T05:39:46;6.86;76.02
71117;SHT31;58775;46.992;9.518;2023-03-26T05:41:47;6.86;75.86
71117;SHT31;58775;46.992;9.518;2023-03-26T05:43:49;6.88;75.03
71117;SHT31;58775;46.992;9.518;2023-03-26T05:46:01;6.88;75.64
71117;SHT31;58775;46.992;9.518;2023-03-26T05:48:04;6.97;74.71
71117;SHT31;58775;46.992;9.518;2023-03-26T05:50:07;6.93;74.66
71117;SHT31;58775;46.992;9.518;2023-03-26T05:52:11;7.00;74.53
71117;SHT31;58775;46.992;9.518;2023-03-26T05:54:50;6.88;75.43
71117;SHT31;58775;46.992;9.518;2023-03-26T05:57:09;6.93;75.16
71117;SHT31;58775;46.992;9.518;2023-03-26T05:59:28;6.98;74.43
71117;SHT31;58775;46.992;9.518;2023-03-26T06:01:48;7.11;73.91
71117;SHT31;58775;46.992;9.518;2023-03-26T06:04:13;7.24;73.73
71117;SHT31;58775;46.992;9.518;2023-03-26T06:06:23;7.34;73.42
71117;SHT31;58775;46.992;9.518;2023-03-26T06:08:29;7.39;73.26
71117;SHT31;58775;46.992;9.518;2023-03-26T06:10:31;7.48;73.49
71117;SHT31;58775;46.992;9.518;2023-03-26T06:12:32;7.66;70.69
71117;SHT31;58775;46.992;9.518;2023-03-26T06:14:33;7.80;69.88
71117;SHT31;58775;46.992;9.518;2023-03-26T06:16:50;7.82;70.03
71117;SHT31;58775;46.992;9.518;2023-03-26T06:18:55;7.87;69.56
71117;SHT31;58775;46.992;9.518;2023-03-26T06:21:04;7.92;69.99
71117;SHT31;58775;46.992;9.518;2023-03-26T06:23:25;7.87;70.73
71117;SHT31;58775;46.992;9.518;2023-03-26T06:25:39;8.03;68.84
71117;SHT31;58775;46.992;9.518;2023-03-26T06:27:46;7.96;69.60
71117;SHT31;58775;46.992;9.518;2023-03-26T06:30:10;8.00;69.99
71117;SHT31;58775;46.992;9.518;2023-03-26T06:32:18;7.99;70.43
71117;SHT31;58775;46.992;9.518;2023-03-26T06:34:23;8.09;69.72
71117;SHT31;58775;46.992;9.518;2023-03-26T06:36:24;8.09;69.88
71117;SHT31;58775;46.992;9.518;2023-03-26T06:38:26;8.10;70.46
71117;SHT31;58775;46.992;9.518;2023-03-26T06:40:27;8.10;69.81
71117;SHT31;58775;46.992;9.518;2023-03-26T06:43:00;8.43;67.94
71117;SHT31;58775;46.992;9.518;2023-03-26T06:45:13;8.71;66.65
71117;SHT31;58775;46.992;9.518;2023-03-26T06:47:33;8.79;66.19
71117;SHT31;58775;46.992;9.518;2023-03-26T06:50:06;8.93;66.27
71117;SHT31;58775;46.992;9.518;2023-03-26T06:52:27;8.93;66.47
71117;SHT31;58775;46.992;9.518;2023-03-26T06:54:46;8.95;66.92
71117;SHT31;58775;46.992;9.518;2023-03-26T06:57:07;9.11;63.43
71117;SHT31;58775;46.992;9.518;2023-03-26T06:59:14;9.23;64.02
71117;SHT31;58775;46.992;9.518;2023-03-26T07:01:34;9.43;63.46
71117;SHT31;58775;46.992;9.518;2023-03-26T07:03:53;9.66;61.53
71117;SHT31;58775;46.992;9.518;2023-03-26T07:06:17;9.88;62.49
71117;SHT31;58775;46.992;9.518;2023-03-26T07:08:39;10.05;60.60
71117;SHT31;58775;46.992;9.518;2023-03-26T07:10:59;10.22;58.28
71117;SHT31;58775;46.992;9.518;2023-03-26T07:13:34;10.28;56.78
71117;SHT31;58775;46.992;9.518;2023-03-26T07:15:57;10.24;54.72
71117;SHT31;58775;46.992;9.518;2023-03-26T07:18:17;10.32;54.72
71117;SHT31;58775;46.992;9.518;2023-03-26T07:20:19;10.45;55.85
71117;SHT31;58775;46.992;9.518;2023-03-26T07:22:24;10.50;57.21
71117;SHT31;58775;46.992;9.518;2023-03-26T07:24:38;10.46;59.42
71117;SHT31;58775;46.992;9.518;2023-03-26T07:29:07;10.36;61.19
71117;SHT31;58775;46.992;9.518;2023-03-26T07:34:16;9.91;63.91
71117;SHT31;58775;46.992;9.518;2023-03-26T07:36:52;9.88;65.62
71117;SHT31;58775;46.992;9.518;2023-03-26T07:39:20;9.77;65.98
71117;SHT31;58775;46.992;9.518;2023-03-26T07:42:07;9.36;68.36
71117;SHT31;58775;46.992;9.518;2023-03-26T07:44:55;8.78;70.86
71117;SHT31;58775;46.992;9.518;2023-03-26T07:49:46;8.55;70.62
71117;SHT31;58775;46.992;9.518;2023-03-26T07:51:58;8.64;71.51
71117;SHT31;58775;46.992;9.518;2023-03-26T07:54:32;8.51;71.27
71117;SHT31;58775;46.992;9.518;2023-03-26T07:57:04;8.33;70.50
71117;SHT31;58775;46.992;9.518;2023-03-26T08:10:07;8.50;70.28
71117;SHT31;58775;46.992;9.518;2023-03-26T08:12:48;8.62;69.49
71117;SHT31;58775;46.992;9.518;2023-03-26T08:15:02;8.74;68.34
71117;SHT31;58775;46.992;9.518;2023-03-26T08:17:13;8.98;67.37
71117;SHT31;58775;46.992;9.518;2023-03-26T08:19:41;9.02;67.58
71117;SHT31;58775;46.992;9.518;2023-03-26T08:21:58;8.81;68.25
71117;SHT31;58775;46.992;9.518;2023-03-26T08:24:10;8.91;67.31
71117;SHT31;58775;46.992;9.518;2023-03-26T08:26:43;8.86;67.10
71117;SHT31;58775;46.992;9.518;2023-03-26T08:29:14;8.99;66.95
71117;SHT31;58775;46.992;9.518;2023-03-26T08:31:17;8.91;66.05
71117;SHT31;58775;46.992;9.518;2023-03-26T08:33:20;8.78;68.57
71117;SHT31;58775;46.992;9.518;2023-03-26T08:35:23;8.75;68.63
71117;SHT31;58775;46.992;9.518;2023-03-26T08:37:25;8.84;68.89
71117;SHT31;58775;46.992;9.518;2023-03-26T08:39:27;8.84;69.13
71117;SHT31;58775;46.992;9.518;2023-03-26T08:51:57;9.42;66.72
71117;SHT31;58775;46.992;9.518;2023-03-26T08:54:21;9.50;66.23
71117;SHT31;58775;46.992;9.518;2023-03-26T08:56:48;9.30;66.53
71117;SHT31;58775;46.992;9.518;2023-03-26T09:03:33;9.29;69.86
71117;SHT31;58775;46.992;9.518;2023-03-26T09:20:35;9.47;70.35
71117;SHT31;58775;46.992;9.518;2023-03-26T09:25:12;9.18;69.71
71117;SHT31;58775;46.992;9.518;2023-03-26T09:33:13;9.18;71.16
71117;SHT31;58775;46.992;9.518;2023-03-26T09:35:24;8.98;73.48
71117;SHT31;58775;46.992;9.518;2023-03-26T09:37:55;8.96;73.89
71117;SHT31;58775;46.992;9.518;2023-03-26T09:47:28;9.06;74.71
71117;SHT31;58775;46.992;9.518;2023-03-26T09:49:40;9.33;73.07
71117;SHT31;58775;46.992;9.518;2023-03-26T09:51:51;9.20;74.93
71117;SHT31;58775;46.992;9.518;2023-03-26T09:54:26;9.23;74.95
71117;SHT31;58775;46.992;9.518;2023-03-26T09:57:07;9.34;74.22
71117;SHT31;58775;46.992;9.518;2023-03-26T10:02:08;9.06;74.63
71117;SHT31;58775;46.992;9.518;2023-03-26T10:09:12;8.76;78.30
71117;SHT31;58775;46.992;9.518;2023-03-26T10:11:36;8.75;80.52
71117;SHT31;58775;46.992;9.518;2023-03-26T10:13:48;8.84;78.74
71117;SHT31;58775;46.992;9.518;2023-03-26T10:21:46;9.20;79.02
71117;SHT31;58775;46.992;9.518;2023-03-26T10:24:05;8.91;80.17
71117;SHT31;58775;46.992;9.518;2023-03-26T10:26:16;8.85;80.17
71117;SHT31;58775;46.992;9.518;2023-03-26T10:28:56;8.88;79.82
71117;SHT31;58775;46.992;9.518;2023-03-26T10:46:40;8.82;80.52
71117;SHT31;58775;46.992;9.518;2023-03-26T10:49:15;8.47;82.38
71117;SHT31;58775;46.992;9.518;2023-03-26T10:53:42;8.79;81.21
71117;SHT31;58775;46.992;9.518;2023-03-26T10:55:54;8.76;81.68
71117;SHT31;58775;46.992;9.518;2023-03-26T11:00:16;8.85;82.65
71117;SHT31;58775;46.992;9.518;2023-03-26T11:02:39;8.84;83.12
71117;SHT31;58775;46.992;9.518;2023-03-26T11:05:15;8.99;82.30
71117;SHT31;58775;46.992;9.518;2023-03-26T11:07:33;8.99;82.67
71117;SHT31;58775;46.992;9.518;2023-03-26T11:10:08;8.69;86.09
71117;SHT31;58775;46.992;9.518;2023-03-26T11:12:23;8.79;85.56
71117;SHT31;58775;46.992;9.518;2023-03-26T11:24:55;9.11;87.87
71117;SHT31;58775;46.992;9.518;2023-03-26T11:27:39;8.82;88.79
71117;SHT31;58775;46.992;9.518;2023-03-26T11:30:00;8.95;86.81
71117;SHT31;58775;46.992;9.518;2023-03-26T11:32:52;9.15;76.23
71117;SHT31;58775;46.992;9.518;2023-03-26T11:34:42;9.27;78.25
71117;SHT31;58775;46.992;9.518;2023-03-26T11:36:52;9.39;78.78
71117;SHT31;58775;46.992;9.518;2023-03-26T11:38:58;9.51;79.99
71117;SHT31;58775;46.992;9.518;2023-03-26T11:41:25;9.56;82.86
71117;SHT31;58775;46.992;9.518;2023-03-26T11:43:44;9.58;83.97
71117;SHT31;58775;46.992;9.518;2023-03-26T11:45:50;9.48;82.69
71117;SHT31;58775;46.992;9.518;2023-03-26T11:48:06;9.63;82.41
71117;SHT31;58775;46.992;9.518;2023-03-26T11:50:25;9.51;84.45
71117;SHT31;58775;46.992;9.518;2023-03-26T11:52:29;9.53;81.68
71117;SHT31;58775;46.992;9.518;2023-03-26T11:54:31;9.46;84.43
71117;SHT31;58775;46.992;9.518;2023-03-26T11:56:51;9.43;85.53
71117;SHT31;58775;46.992;9.518;2023-03-26T12:01:42;9.60;85.94
71117;SHT31;58775;46.992;9.518;2023-03-26T12:03:56;9.88;84.27
71117;SHT31;58775;46.992;9.518;2023-03-26T12:05:59;10.04;82.54
71117;SHT31;58775;46.992;9.518;2023-03-26T12:08:17;10.08;81.39
71117;SHT31;58775;46.992;9.518;2023-03-26T12:10:36;10.18;79.29
71117;SHT31;58775;46.992;9.518;2023-03-26T12:12:41;10.26;79.90
71117;SHT31;58775;46.992;9.518;2023-03-26T12:14:46;10.18;80.39
71117;SHT31;58775;46.992;9.518;2023-03-26T12:17:04;9.95;81.66
71117;SHT31;58775;46.992;9.518;2023-03-26T12:19:18;10.09;81.08
71117;SHT31;58775;46.992;9.518;2023-03-26T12:21:20;10.14;80.92
71117;SHT31;58775;46.992;9.518;2023-03-26T12:24:01;10.01;81.33
71117;SHT31;58775;46.992;9.518;2023-03-26T12:28:53;9.91;81.53
71117;SHT31;58775;46.992;9.518;2023-03-26T12:31:00;9.87;80.89
71117;SHT31;58775;46.992;9.518;2023-03-26T12:33:15;9.80;79.82
71117;SHT31;58775;46.992;9.518;2023-03-26T12:35:26;9.64;81.59
71117;SHT31;58775;46.992;9.518;2023-03-26T12:37:37;9.78;81.66
71117;SHT31;58775;46.992;9.518;2023-03-26T12:39:42;9.84;81.34
71117;SHT31;58775;46.992;9.518;2023-03-26T12:41:54;9.97;80.69
71117;SHT31;58775;46.992;9.518;2023-03-26T12:46:34;10.19;78.45
71117;SHT31;58775;46.992;9.518;2023-03-26T12:48:36;10.26;78.66
71117;SHT31;58775;46.992;9.518;2023-03-26T12:57:37;10.60;75.70
71117;SHT31;58775;46.992;9.518;2023-03-26T13:16:12;10.90;73.61
71117;SHT31;58775;46.992;9.518;2023-03-26T13:20:33;10.75;75.55
71117;SHT31;58775;46.992;9.518;2023-03-26T13:23:09;10.56;77.67
71117;SHT31;58775;46.992;9.518;2023-03-26T13:27:36;10.60;76.62
71117;SHT31;58775;46.992;9.518;2023-03-26T13:32:17;10.53;76.52
71117;SHT31;58775;46.992;9.518;2023-03-26T13:36:54;10.45;74.62
71117;SHT31;58775;46.992;9.518;2023-03-26T13:42:05;10.34;76.84
71117;SHT31;58775;46.992;9.518;2023-03-26T13:45:10;10.15;74.63
71117;SHT31;58775;46.992;9.518;2023-03-26T13:46:59;10.29;73.47
71117;SHT31;58775;46.992;9.518;2023-03-26T13:49:26;10.28;73.58
71117;SHT31;58775;46.992;9.518;2023-03-26T13:53:42;10.09;75.31
71117;SHT31;58775;46.992;9.518;2023-03-26T13:55:50;10.05;74.75
71117;SHT31;58775;46.992;9.518;2023-03-26T13:58:05;10.15;75.23
71117;SHT31;58775;46.992;9.518;2023-03-26T14:00:14;10.22;74.81
71117;SHT31;58775;46.992;9.518;2023-03-26T14:02:31;10.17;74.16
71117;SHT31;58775;46.992;9.518;2023-03-26T14:04:40;10.11;73.13
71117;SHT31;58775;46.992;9.518;2023-03-26T14:06:57;10.22;73.14
71117;SHT31;58775;46.992;9.518;2023-03-26T14:09:09;10.19;72.25
71117;SHT31;58775;46.992;9.518;2023-03-26T14:11:49;10.28;72.37
71117;SHT31;58775;46.992;9.518;2023-03-26T14:14:01;10.39;72.52
71117;SHT31;58775;46.992;9.518;2023-03-26T14:18:27;10.44;72.44
71117;SHT31;58775;46.992;9.518;2023-03-26T14:26:09;10.46;69.49
71117;SHT31;58775;46.992;9.518;2023-03-26T14:31:14;10.42;70.05
71117;SHT31;58775;46.992;9.518;2023-03-26T14:35:51;10.56;69.28
71117;SHT31;58775;46.992;9.518;2023-03-26T14:40:19;10.73;69.24
71117;SHT31;58775;46.992;9.518;2023-03-26T14:42:46;10.62;68.99
71117;SHT31;58775;46.992;9.518;2023-03-26T14:47:20;10.70;69.18
71117;SHT31;58775;46.992;9.518;2023-03-26T14:49:32;10.79;69.54
71117;SHT31;58775;46.992;9.518;2023-03-26T14:54:08;10.80;69.60
71117;SHT31;58775;46.992;9.518;2023-03-26T14:58:39;10.62;67.78
71117;SHT31;58775;46.992;9.518;2023-03-26T15:01:07;10.72;68.33
71117;SHT31;58775;46.992;9.518;2023-03-26T15:03:32;10.72;68.34
71117;SHT31;58775;46.992;9.518;2023-03-26T15:13:04;10.65;68.87
71117;SHT31;58775;46.992;9.518;2023-03-26T15:15:32;10.63;69.09
71117;SHT31;58775;46.992;9.518;2023-03-26T15:17:53;10.76;68.79
71117;SHT31;58775;46.992;9.518;2023-03-26T15:29:52;10.92;69.76
71117;SHT31;58775;46.992;9.518;2023-03-26T15:39:24;11.01;68.62
71117;SHT31;58775;46.992;9.518;2023-03-26T15:41:42;11.01;69.43
71117;SHT31;58775;46.992;9.518;2023-03-26T15:46:20;11.08;69.04
71117;SHT31;58775;46.992;9.518;2023-03-26T15:53:10;10.56;73.45
71117;SHT31;58775;46.992;9.518;2023-03-26T16:00:20;9.48;71.80
71117;SHT31;58775;46.992;9.518;2023-03-26T16:02:39;8.68;72.74
71117;SHT31;58775;46.992;9.518;2023-03-26T16:04:44;8.40;72.89
71117;SHT31;58775;46.992;9.518;2023-03-26T16:11:44;8.17;74.39
71117;SHT31;58775;46.992;9.518;2023-03-26T16:13:49;8.04;75.97
71117;SHT31;58775;46.992;9.518;2023-03-26T16:18:19;7.97;72.87
71117;SHT31;58775;46.992;9.518;2023-03-26T16:20:33;8.01;73.70
71117;SHT31;58775;46.992;9.518;2023-03-26T16:25:20;8.21;73.24
71117;SHT31;58775;46.992;9.518;2023-03-26T16:27:30;8.03;74.54
71117;SHT31;58775;46.992;9.518;2023-03-26T16:36:25;7.44;77.60
71117;SHT31;58775;46.992;9.518;2023-03-26T16:38:53;7.36;76.95
71117;SHT31;58775;46.992;9.518;2023-03-26T16:41:13;7.56;78.71
71117;SHT31;58775;46.992;9.518;2023-03-26T16:50:42;7.54;85.53
71117;SHT31;58775;46.992;9.518;2023-03-26T16:53:12;7.42;87.83
71117;SHT31;58775;46.992;9.518;2023-03-26T16:55:33;7.62;86.63
71117;SHT31;58775;46.992;9.518;2023-03-26T17:02:32;7.68;85.90
71117;SHT31;58775;46.992;9.518;2023-03-26T17:04:37;7.34;87.39
71117;SHT31;58775;46.992;9.518;2023-03-26T17:09:27;7.17;87.82
71117;SHT31;58775;46.992;9.518;2023-03-26T17:16:18;7.03;88.52
71117;SHT31;58775;46.992;9.518;2023-03-26T17:18:37;7.07;87.29
71117;SHT31;58775;46.992;9.518;2023-03-26T17:35:40;6.91;80.69
71117;SHT31;58775;46.992;9.518;2023-03-26T17:37:43;7.11;74.71
71117;SHT31;58775;46.992;9.518;2023-03-26T17:46:44;7.87;68.82
71117;SHT31;58775;46.992;9.518;2023-03-26T17:48:51;7.73;70.06
71117;SHT31;58775;46.992;9.518;2023-03-26T17:51:00;7.63;70.62
71117;SHT31;58775;46.992;9.518;2023-03-26T17:53:09;7.56;71.28
71117;SHT31;58775;46.992;9.518;2023-03-26T17:55:17;7.41;71.75
71117;SHT31;58775;46.992;9.518;2023-03-26T17:57:26;7.31;73.09
71117;SHT31;58775;46.992;9.518;2023-03-26T17:59:31;7.03;75.01
71117;SHT31;58775;46.992;9.518;2023-03-26T18:01:37;7.03;77.20
71117;SHT31;58775;46.992;9.518;2023-03-26T18:03:43;6.57;76.94
71117;SHT31;58775;46.992;9.518;2023-03-26T18:05:52;6.45;79.34
71117;SHT31;58775;46.992;9.518;2023-03-26T18:13:05;6.28;79.80
71117;SHT31;58775;46.992;9.518;2023-03-26T18:17:38;6.18;79.96
71117;SHT31;58775;46.992;9.518;2023-03-26T18:19:52;6.06;81.25
71117;SHT31;58775;46.992;9.518;2023-03-26T18:21:58;6.19;78.10
71117;SHT31;58775;46.992;9.518;2023-03-26T18:24:06;6.24;79.58
71117;SHT31;58775;46.992;9.518;2023-03-26T18:26:20;6.14;79.07
71117;SHT31;58775;46.992;9.518;2023-03-26T18:28:30;6.24;78.69
71117;SHT31;58775;46.992;9.518;2023-03-26T18:30:44;6.24;79.52
71117;SHT31;58775;46.992;9.518;2023-03-26T18:33:11;6.15;81.67
71117;SHT31;58775;46.992;9.518;2023-03-26T18:35:19;6.21;80.98
71117;SHT31;58775;46.992;9.518;2023-03-26T18:37:41;6.02;79.92
71117;SHT31;58775;46.992;9.518;2023-03-26T18:40:06;6.09;79.13
71117;SHT31;58775;46.992;9.518;2023-03-26T18:42:17;6.06;79.17
71117;SHT31;58775;46.992;9.518;2023-03-26T18:44:22;6.05;79.31
71117;SHT31;58775;46.992;9.518;2023-03-26T18:46:23;6.04;80.80
71117;SHT31;58775;46.992;9.518;2023-03-26T18:48:25;5.93;79.92
71117;SHT31;58775;46.992;9.518;2023-03-26T18:50:33;5.93;79.37
71117;SHT31;58775;46.992;9.518;2023-03-26T18:52:36;5.97;79.47
71117;SHT31;58775;46.992;9.518;2023-03-26T18:54:37;5.87;78.12